Aberdeen, WA

7:35 PM PDT on July 30, 2016 (GMT -0700)
Central Park 2 | | Change Station

Elev 33 ft 46.97 °N, 123.72 °W | Updated 11 minutes ago

Light Rain
Light Rain
63.1 °F
Feels Like 63.1 °F
N
6.3
Wind Variable Wind from SW

Today
High -- | Low -- °F
--% Chance of Precip.
Yesterday
High -- | Low -- °F
Precip. -- in
Pressure 30.01 in
Visibility 5.0 miles
Clouds Mostly Cloudy 1600 ft
Dew Point 58 °F
Humidity 82%
Rainfall 0.00 in
Snow Depth Not available.
5:52 AM 8:49 PM
Waning Crescent, 9% visible
METAR KHQM 310153Z AUTO 26016KT 5SM -RA BKN016 16/12 A3000 RMK AO2 SLP162 P0000 T01560122 $
Pressure 30.01 in
Visibility 5.0 miles
Clouds Mostly Cloudy 1600 ft
Dew Point 58 °F
Humidity 82%
Rainfall 0.00 in
Snow Depth Not available.
5:52 AM 8:49 PM
Waning Crescent, 9% visible
METAR KHQM 310153Z AUTO 26016KT 5SM -RA BKN016 16/12 A3000 RMK AO2 SLP162 P0000 T01560122 $

10-Day Weather Forecast

Almanac

Astronomy

Jul. 30, 2016 Rise Set
Actual Time
Civil Twilight
Nautical Twilight
Astronomical Twilight
Moon
Length of Visible Light
Length of Day
Tomorrow will be .
, % of the Moon is Illuminated

Today's Extremes

State Highs State Lows

Community

WunderPhotos

Upload Photos

1,928,714 photos uploaded!

WunderBlog® & News

Nearby

Air Quality

  Air Quality AQ Index Pollutant
Not available.

Snow Depth

Station Depth Elevation

Earthquake Activity

City Distance Mag. Time & Date
Minimum magnitude displayed is 2.5.

Coastal Water Temperatures

Place Temperature

Stations

Nearby Weather Stations

Station Location Temp. Windchill Dew Point Humidity Wind Precip. Elev Updated Type
                   

Watches & Warnings

There are currently no watches in effect.